Time;durP1;ratioP1;P1;durP2;ratioP2;P2;SDS_P1;SDS_P2;PMS_P1;PMS_P2;Temp;Humidity;BMP_temperature;BMP_pressure;BME280_temperature;BME280_humidity;BME280_pressure;Samples;Min_cycle;Max_cycle;Signal;HPM_P1;HPM_P2
2021/10/09 00:00:13;;;;;;;0.55;0.50;;;;;;;3.98;57.60;99323.66;5051699;28;20076;-64
2021/10/09 00:02:39;;;;;;;0.63;0.63;;;;;;;3.94;57.69;99323.16;5052232;28;20066;-64
2021/10/09 00:05:06;;;;;;;0.88;0.43;;;;;;;3.92;57.86;99321.66;5051789;28;20048;-65
2021/10/09 00:07:32;;;;;;;0.40;0.40;;;;;;;3.88;57.79;99326.59;5052349;28;20041;-66
2021/10/09 00:10:04;;;;;;;0.40;0.40;;;;;;;3.85;57.94;99327.78;5052260;28;20091;-65
2021/10/09 00:12:30;;;;;;;0.35;0.35;;;;;;;3.82;58.06;99332.75;5052179;28;20423;-63
2021/10/09 00:14:56;;;;;;;0.50;0.50;;;;;;;3.79;58.03;99331.22;5033772;28;20057;-63
2021/10/09 00:17:24;;;;;;;0.32;0.32;;;;;;;3.77;58.19;99327.84;5052075;28;20128;-64
2021/10/09 00:19:50;;;;;;;0.88;0.55;;;;;;;3.76;58.15;99328.03;5052114;28;20056;-64
2021/10/09 00:22:16;;;;;;;0.30;0.30;;;;;;;3.75;58.10;99327.16;5052081;28;20040;-65
2021/10/09 00:24:42;;;;;;;0.73;0.73;;;;;;;3.73;58.25;99322.97;5051899;28;20051;-65
2021/10/09 00:27:07;;;;;;;0.68;0.68;;;;;;;3.71;58.21;99323.13;5052226;28;20034;-64
2021/10/09 00:29:33;;;;;;;4.65;0.80;;;;;;;3.70;58.21;99323.31;5017170;28;20036;-65
2021/10/09 00:31:59;;;;;;;1.25;0.35;;;;;;;3.68;58.46;99326.19;5051441;28;20083;-64
2021/10/09 00:34:25;;;;;;;0.80;0.68;;;;;;;3.68;58.33;99328.91;5051861;28;20401;-63
2021/10/09 00:36:50;;;;;;;1.40;0.75;;;;;;;3.61;58.71;99322.50;5052056;28;20045;-63
2021/10/09 00:39:16;;;;;;;0.85;0.57;;;;;;;3.59;58.49;99324.53;5052183;28;20048;-64
2021/10/09 00:41:43;;;;;;;1.00;0.60;;;;;;;3.58;58.71;99314.69;5051655;28;20045;-64
2021/10/09 00:44:10;;;;;;;0.43;0.43;;;;;;;3.52;58.74;99316.28;5051560;28;20095;-64
2021/10/09 00:46:38;;;;;;;0.57;0.57;;;;;;;3.50;58.89;99319.16;5051359;28;20045;-64
2021/10/09 00:49:04;;;;;;;0.20;0.20;;;;;;;3.52;58.76;99318.97;5051851;28;20119;-65
2021/10/09 00:51:30;;;;;;;1.10;0.60;;;;;;;3.49;58.89;99319.34;5051355;28;20047;-64
2021/10/09 00:54:00;;;;;;;0.40;0.40;;;;;;;3.49;58.88;99312.03;5033735;28;20136;-68
2021/10/09 00:56:28;;;;;;;0.43;0.43;;;;;;;3.51;58.92;99328.97;5051685;28;20045;-65
2021/10/09 00:58:55;;;;;;;0.95;0.73;;;;;;;3.52;58.87;99310.84;5050849;28;20087;-64
2021/10/09 01:01:21;;;;;;;0.32;0.32;;;;;;;3.57;58.79;99319.28;5051383;28;20037;-64
2021/10/09 01:03:48;;;;;;;0.43;0.43;;;;;;;3.56;58.85;99312.16;5051670;28;20040;-64
2021/10/09 01:06:15;;;;;;;0.40;0.40;;;;;;;3.52;58.95;99316.28;5055331;28;20098;-64
2021/10/09 01:08:40;;;;;;;0.85;0.65;;;;;;;3.50;58.92;99312.88;5055126;28;20037;-64
2021/10/09 01:11:06;;;;;;;0.45;0.45;;;;;;;3.50;58.97;99315.59;5055167;28;20041;-64
2021/10/09 01:13:32;;;;;;;0.70;0.38;;;;;;;3.49;59.09;99311.19;5055058;28;20102;-64
2021/10/09 01:15:57;;;;;;;0.30;0.30;;;;;;;3.48;59.09;99310.31;5054828;28;20040;-63
2021/10/09 01:18:23;;;;;;;0.90;0.77;;;;;;;3.43;59.14;99307.31;5054884;28;20033;-64
2021/10/09 01:21:02;;;;;;;1.65;0.70;;;;;;;3.40;59.34;99299.53;5054803;28;20072;-64
2021/10/09 01:23:29;;;;;;;1.13;0.55;;;;;;;3.40;59.17;99291.38;5055080;28;20044;-63
2021/10/09 01:25:55;;;;;;;1.05;0.57;;;;;;;3.39;59.22;99295.09;5054447;28;20037;-63
2021/10/09 01:28:21;;;;;;;0.93;0.93;;;;;;;3.41;59.29;99292.22;5054756;28;20053;-64
2021/10/09 01:30:47;;;;;;;0.40;0.40;;;;;;;3.39;59.39;99289.69;5053987;28;20467;-64
2021/10/09 01:33:14;;;;;;;0.73;0.52;;;;;;;3.45;59.13;99288.13;5055327;28;20507;-64
2021/10/09 01:35:49;;;;;;;2.78;0.70;;;;;;;3.50;59.22;99285.72;5054637;28;20033;-64
2021/10/09 01:38:14;;;;;;;;;;;;;;;3.54;58.90;99289.78;5054944;28;20450;-64
2021/10/09 01:40:40;;;;;;;0.65;0.65;;;;;;;3.57;58.70;99294.00;5054356;28;19924;-63
2021/10/09 01:43:14;;;;;;;0.38;0.38;;;;;;;3.59;58.84;99283.81;5054261;28;20041;-64
2021/10/09 01:45:44;;;;;;;0.40;0.40;;;;;;;3.61;58.76;99284.50;5036523;28;20542;-63
2021/10/09 01:48:10;;;;;;;0.25;0.25;;;;;;;3.61;58.81;99292.63;5054799;28;20048;-63
2021/10/09 01:50:36;;;;;;;0.45;0.45;;;;;;;3.58;58.86;99285.69;5054705;28;20112;-64
2021/10/09 01:53:05;;;;;;;1.10;0.65;;;;;;;3.55;59.06;99287.88;5054460;28;20041;-65
2021/10/09 01:55:31;;;;;;;0.45;0.40;;;;;;;3.51;59.22;99280.09;5053881;28;20052;-65
2021/10/09 01:57:58;;;;;;;0.40;0.40;;;;;;;3.51;59.33;99281.97;5054200;28;20052;-65
2021/10/09 02:00:23;;;;;;;0.40;0.40;;;;;;;3.50;59.36;99286.59;5053986;28;20452;-65
2021/10/09 02:02:50;;;;;;;0.98;0.73;;;;;;;3.54;59.30;99283.50;5054298;28;20045;-65
2021/10/09 02:05:16;;;;;;;0.70;0.52;;;;;;;3.57;59.30;99281.28;5054025;28;20067;-66
2021/10/09 02:07:42;;;;;;;0.80;0.80;;;;;;;3.63;59.25;99277.84;5053894;28;20518;-64
2021/10/09 02:10:09;;;;;;;0.30;0.30;;;;;;;3.71;59.10;99276.97;5053907;28;20507;-65
2021/10/09 02:12:34;;;;;;;0.38;0.38;;;;;;;3.77;59.13;99281.69;5035881;28;20391;-62
2021/10/09 02:15:09;;;;;;;0.35;0.35;;;;;;;3.81;58.98;99288.44;5053736;28;20057;-64
2021/10/09 02:25:47;;;;;;;0.75;0.75;;;;;;;3.98;58.82;99288.34;5053584;28;20419;-64
2021/10/09 02:28:18;;;;;;;0.45;0.45;;;;;;;4.02;58.75;99284.22;5053827;28;20041;-64
2021/10/09 02:30:45;;;;;;;1.70;1.08;;;;;;;4.08;58.66;99279.91;5052795;28;20049;-64
2021/10/09 02:33:11;;;;;;;2.17;1.30;;;;;;;4.14;58.71;99276.50;5053614;28;20047;-64
2021/10/09 02:35:37;;;;;;;0.65;0.65;;;;;;;4.17;58.61;99271.53;5053222;28;20103;-64
2021/10/09 02:38:05;;;;;;;0.47;0.47;;;;;;;4.23;58.58;99272.69;5053863;28;20055;-66
2021/10/09 02:40:31;;;;;;;2.25;1.30;;;;;;;4.29;58.58;99269.22;5053354;28;20049;-66
2021/10/09 02:42:57;;;;;;;0.80;0.73;;;;;;;4.36;58.62;99274.78;5053174;28;20033;-66
2021/10/09 02:45:23;;;;;;;0.75;0.75;;;;;;;4.42;58.49;99275.91;5053250;28;20044;-67
2021/10/09 02:47:48;;;;;;;0.50;0.50;;;;;;;4.46;58.49;99267.22;5053532;28;20487;-64
2021/10/09 02:50:15;;;;;;;1.95;0.68;;;;;;;4.55;58.46;99262.56;5052986;28;20484;-63
2021/10/09 02:52:42;;;;;;;0.30;0.30;;;;;;;4.58;58.29;99262.19;5053207;28;20040;-65
2021/10/09 02:55:08;;;;;;;0.73;0.73;;;;;;;4.60;58.49;99259.28;5051888;28;20107;-63
2021/10/09 02:57:36;;;;;;;0.60;0.60;;;;;;;4.60;58.53;99260.09;5051936;28;20045;-65
2021/10/09 03:00:04;;;;;;;0.40;0.40;;;;;;;4.65;58.41;99263.13;5051617;28;20079;-66
2021/10/09 03:02:30;;;;;;;0.70;0.70;;;;;;;4.66;58.42;99272.97;5052836;28;20041;-65
2021/10/09 03:04:56;;;;;;;0.40;0.40;;;;;;;4.70;58.48;99268.84;5052770;28;20055;-65
2021/10/09 03:07:21;;;;;;;0.40;0.40;;;;;;;4.76;58.37;99266.44;5052980;28;20075;-66
2021/10/09 03:09:47;;;;;;;0.57;0.57;;;;;;;4.83;58.29;99273.66;5052802;28;20411;-63
2021/10/09 03:12:13;;;;;;;0.75;0.75;;;;;;;4.91;58.21;99268.09;5052449;28;20143;-61
2021/10/09 03:14:38;;;;;;;2.08;0.90;;;;;;;5.00;58.28;99278.91;5052619;28;20049;-63
2021/10/09 03:17:04;;;;;;;0.50;0.50;;;;;;;5.13;57.81;99276.38;5052775;28;20056;-66
2021/10/09 03:19:30;;;;;;;0.50;0.50;;;;;;;5.25;57.58;99268.56;5052940;28;20049;-65
2021/10/09 03:21:55;;;;;;;1.10;0.68;;;;;;;5.38;57.46;99274.19;5053009;28;20044;-63
2021/10/09 03:24:21;;;;;;;0.28;0.28;;;;;;;5.50;57.21;99281.88;5052607;28;20067;-63
2021/10/09 03:26:47;;;;;;;0.88;0.60;;;;;;;5.57;57.16;99275.47;5052185;28;20132;-64
2021/10/09 03:29:12;;;;;;;1.02;1.02;;;;;;;5.64;57.02;99281.00;5052001;28;20055;-63
2021/10/09 03:31:38;;;;;;;0.63;0.63;;;;;;;5.67;57.17;99275.19;5052142;28;20049;-64
2021/10/09 03:34:04;;;;;;;0.45;0.45;;;;;;;5.68;57.35;99270.56;5052685;28;20484;-64
2021/10/09 03:36:30;;;;;;;0.75;0.75;;;;;;;5.68;57.26;99274.13;5052147;28;20496;-64
2021/10/09 03:38:56;;;;;;;1.38;0.70;;;;;;;5.67;57.45;99279.75;5051534;28;20041;-62
2021/10/09 03:41:21;;;;;;;0.20;0.20;;;;;;;5.68;57.52;99271.41;5052100;28;20103;-64
2021/10/09 03:43:47;;;;;;;0.30;0.30;;;;;;;5.73;57.49;99274.41;5052282;28;20053;-64
2021/10/09 03:46:26;;;;;;;0.30;0.30;;;;;;;5.74;57.59;99287.00;5051605;28;20227;-65
2021/10/09 03:49:02;;;;;;;2.00;1.23;;;;;;;5.74;57.67;99289.72;5052266;28;20049;-65
2021/10/09 03:54:12;;;;;;;0.80;0.32;;;;;;;5.71;57.79;99289.25;5052474;28;20099;-65
2021/10/09 03:56:38;;;;;;;0.40;0.25;;;;;;;5.73;57.72;99285.31;5051802;28;20040;-67
2021/10/09 03:59:08;;;;;;;0.60;0.60;;;;;;;5.74;57.74;99281.56;5052011;28;20052;-68
2021/10/09 04:01:34;;;;;;;0.93;0.22;;;;;;;5.75;57.68;99285.09;5052371;28;20044;-65
2021/10/09 04:03:59;;;;;;;0.50;0.50;;;;;;;5.75;57.74;99279.66;5052035;28;20045;-63
2021/10/09 04:06:25;;;;;;;3.00;1.40;;;;;;;5.79;57.88;99279.06;5051806;28;20037;-63
2021/10/09 04:08:51;;;;;;;1.23;0.63;;;;;;;5.90;57.49;99274.16;5051855;28;20037;-63
2021/10/09 04:11:16;;;;;;;0.30;0.30;;;;;;;6.07;57.14;99286.53;5052168;28;20048;-63
2021/10/09 04:13:42;;;;;;;0.85;0.57;;;;;;;6.26;56.70;99282.31;5052621;28;20041;-66
2021/10/09 04:16:08;;;;;;;1.50;0.68;;;;;;;6.44;56.52;99281.84;5051680;28;20458;-64
2021/10/09 04:18:33;;;;;;;0.43;0.43;;;;;;;6.63;56.07;99280.31;5051743;28;20119;-67
2021/10/09 04:20:59;;;;;;;0.38;0.38;;;;;;;6.79;55.87;99278.38;5051820;28;20063;-64
2021/10/09 04:23:25;;;;;;;0.80;0.57;;;;;;;6.92;55.73;99273.00;5051908;28;20454;-65
2021/10/09 04:25:51;;;;;;;0.50;0.50;;;;;;;7.06;55.49;99279.38;5051660;28;20529;-65
2021/10/09 04:28:16;;;;;;;0.30;0.30;;;;;;;7.22;55.44;99272.75;5052014;28;20461;-65
2021/10/09 04:30:42;;;;;;;0.52;0.52;;;;;;;7.34;55.31;99265.66;5051077;28;20072;-65
2021/10/09 04:33:08;;;;;;;2.70;1.25;;;;;;;7.40;55.32;99283.13;5051248;28;20049;-65
2021/10/09 04:35:33;;;;;;;2.00;1.08;;;;;;;7.48;55.27;99280.22;5051496;28;20045;-64
2021/10/09 04:38:05;;;;;;;3.00;0.73;;;;;;;7.61;55.24;99276.72;5051791;28;20041;-65
2021/10/09 04:40:30;;;;;;;0.52;0.52;;;;;;;7.71;54.78;99290.84;5054424;28;20553;-65
2021/10/09 04:42:56;;;;;;;0.63;0.63;;;;;;;7.80;55.04;99282.44;5055391;28;20045;-64
2021/10/09 04:45:22;;;;;;;0.43;0.43;;;;;;;7.87;55.08;99289.63;5052880;28;20060;-65
2021/10/09 04:47:48;;;;;;;0.40;0.40;;;;;;;7.93;54.87;99287.13;5044797;28;20048;-65
2021/10/09 04:50:13;;;;;;;0.73;0.73;;;;;;;7.96;55.10;99283.97;5043202;28;20049;-66
2021/10/09 04:52:39;;;;;;;1.05;1.05;;;;;;;8.02;55.11;99281.28;5042904;28;20049;-67
2021/10/09 04:55:06;;;;;;;2.58;1.08;;;;;;;8.04;55.18;99278.31;5044162;28;20065;-65
2021/10/09 04:57:32;;;;;;;4.43;1.42;;;;;;;8.07;55.30;99276.00;5042700;28;20088;-66
2021/10/09 04:59:57;;;;;;;1.85;1.13;;;;;;;8.05;55.53;99280.84;5043341;28;20033;-66
2021/10/09 05:02:23;;;;;;;2.80;1.90;;;;;;;8.00;55.61;99279.78;5052536;28;20048;-65
2021/10/09 05:04:49;;;;;;;1.02;1.00;;;;;;;8.01;55.71;99278.72;5048080;28;20126;-67
2021/10/09 05:07:15;;;;;;;1.60;1.23;;;;;;;8.06;55.59;99281.69;5039955;28;20036;-67
2021/10/09 05:09:42;;;;;;;0.43;0.43;;;;;;;8.03;55.63;99274.72;5044154;28;20042;-69
2021/10/09 05:12:08;;;;;;;1.45;1.35;;;;;;;7.98;55.96;99266.31;5043789;28;20096;-65
2021/10/09 05:14:34;;;;;;;0.80;0.80;;;;;;;8.01;55.86;99268.63;5043624;28;20037;-64
2021/10/09 05:17:00;;;;;;;2.25;0.95;;;;;;;7.99;55.94;99262.50;5043871;28;20465;-64
2021/10/09 05:19:26;;;;;;;1.92;1.17;;;;;;;8.04;55.84;99260.00;5041645;28;20041;-67
2021/10/09 05:21:52;;;;;;;4.03;0.93;;;;;;;8.09;55.93;99258.56;5042459;28;20045;-68
2021/10/09 05:24:19;;;;;;;5.97;0.73;;;;;;;8.06;55.79;99255.16;5040162;28;20049;-65
2021/10/09 05:26:45;;;;;;;2.28;0.77;;;;;;;8.07;55.76;99253.28;5040178;28;20104;-67
2021/10/09 05:29:18;;;;;;;5.68;0.88;;;;;;;8.10;55.83;99262.94;5042516;28;20128;-66
2021/10/09 05:31:47;;;;;;;1.42;1.17;;;;;;;8.06;55.98;99249.69;5043775;28;20046;-65
2021/10/09 05:34:12;;;;;;;5.70;0.80;;;;;;;8.05;55.89;99258.97;5043636;28;20045;-65
2021/10/09 05:36:38;;;;;;;0.50;0.50;;;;;;;8.05;56.01;99248.03;5045227;28;20176;-67
2021/10/09 05:39:04;;;;;;;0.90;0.63;;;;;;;8.15;55.70;99252.25;5042446;28;20041;-66
2021/10/09 05:41:31;;;;;;;0.20;0.20;;;;;;;8.22;55.53;99243.00;5041804;28;20061;-66
2021/10/09 05:43:56;;;;;;;1.30;0.93;;;;;;;8.32;55.44;99242.59;5043182;28;20112;-66
2021/10/09 05:46:23;;;;;;;1.00;0.60;;;;;;;8.49;54.96;99247.66;5044034;28;20419;-66
2021/10/09 05:48:49;;;;;;;0.63;0.63;;;;;;;8.58;54.83;99239.03;5042862;28;20484;-66
2021/10/09 05:59:30;;;;;;;0.85;0.65;;;;;;;9.02;54.35;99238.56;4995889;28;20099;-64
2021/10/09 07:01:01;;;;;;;0.20;0.20;;;;;;;10.26;53.22;99176.09;5001894;28;20480;-65
2021/10/09 07:04:06;;;;;;;0.35;0.35;;;;;;;10.13;53.53;99178.97;5033103;28;20423;-63
2021/10/09 07:06:53;;;;;;;;;;;;;;;9.93;53.67;99181.84;5030302;28;20044;-65
2021/10/09 07:13:20;;;;;;;0.40;0.40;;;;;;;9.74;54.27;99187.22;5039244;28;20101;-67
2021/10/09 07:16:05;;;;;;;;;;;;;;;9.77;53.94;99178.53;5051216;28;20065;-69
2021/10/09 07:25:57;;;;;;;1.00;0.98;;;;;;;9.80;53.71;99185.50;5026203;28;20515;-65
2021/10/09 07:29:03;;;;;;;0.35;0.35;;;;;;;9.84;53.87;99185.91;5034961;28;20046;-66
2021/10/09 07:31:48;;;;;;;;;;;;;;;9.96;53.44;99186.88;5045453;28;20045;-66
2021/10/09 07:38:17;;;;;;;2.03;0.43;;;;;;;10.11;53.11;99187.38;5037080;28;20044;-67
2021/10/09 07:41:23;;;;;;;1.10;0.63;;;;;;;10.00;53.55;99172.50;5043351;28;20587;-65
2021/10/09 07:51:15;;;;;;;0.57;0.50;;;;;;;9.77;53.92;99177.72;5040742;28;20095;-64
2021/10/09 07:54:20;;;;;;;0.98;0.68;;;;;;;9.71;53.85;99168.47;5049803;28;20581;-66
2021/10/09 08:00:49;;;;;;;2.00;0.65;;;;;;;9.71;53.85;99168.47;5039057;28;20060;-66
2021/10/09 08:03:35;;;;;;;;;;;;;;;9.57;54.18;99155.91;5033647;28;20080;-67
2021/10/09 08:06:39;;;;;;;0.28;0.28;;;;;;;9.39;54.20;99167.59;5031796;28;20015;-66
2021/10/09 08:09:07;;;;;;;0.20;0.20;;;;;;;9.34;54.30;99162.78;5022712;28;20045;-66
2021/10/09 08:11:41;;;;;;;0.40;0.40;;;;;;;9.38;54.37;99166.75;5021154;28;20475;-68
2021/10/09 08:14:12;;;;;;;17.60;1.30;;;;;;;9.47;53.89;99150.91;5016931;28;20496;-66
2021/10/09 08:16:43;;;;;;;0.30;0.30;;;;;;;9.62;53.32;99159.66;5023916;28;20045;-67
2021/10/09 08:19:11;;;;;;;0.38;0.38;;;;;;;9.73;53.55;99149.91;5036477;28;20055;-68
2021/10/09 08:21:41;;;;;;;0.68;0.68;;;;;;;9.80;53.25;99156.19;5027647;28;20146;-67
2021/10/09 08:26:50;;;;;;;0.57;0.57;;;;;;;9.89;53.31;99147.69;5042808;28;20083;-65
2021/10/09 08:41:12;;;;;;;18.00;1.33;;;;;;;9.82;53.21;99154.06;5031484;28;20492;-67
2021/10/09 08:43:45;;;;;;;2.35;1.00;;;;;;;9.76;53.25;99156.84;5031887;28;20057;-64
2021/10/09 08:46:14;;;;;;;0.33;0.33;;;;;;;9.79;53.19;99139.94;4999174;28;20140;-64
2021/10/09 08:48:46;;;;;;;1.30;0.70;;;;;;;9.85;53.35;99151.91;5031608;28;20136;-64
2021/10/09 08:51:19;;;;;;;0.22;0.22;;;;;;;10.02;52.52;99150.31;5032956;28;20049;-65
2021/10/09 08:53:48;;;;;;;0.50;0.50;;;;;;;10.03;52.47;99143.78;5032806;28;20064;-66
2021/10/09 08:56:30;;;;;;;0.73;0.73;;;;;;;10.00;52.71;99160.69;5015519;28;20053;-65
2021/10/09 08:59:26;;;;;;;4.55;0.60;;;;;;;9.99;52.61;99145.28;5014319;28;20519;-65
2021/10/09 09:39:43;;;;;;;3.53;0.75;;;;;;;10.09;52.01;99162.09;4991239;28;20070;-64
2021/10/09 09:42:11;;;;;;;1.02;0.32;;;;;;;10.01;52.28;99162.34;5012073;28;20106;-65
2021/10/09 09:44:55;;;;;;;0.57;0.57;;;;;;;9.95;52.24;99157.75;5034395;28;20041;-63
2021/10/09 09:50:43;;;;;;;0.50;0.50;;;;;;;9.68;53.00;99163.44;5043185;28;20406;-62
2021/10/09 09:53:09;;;;;;;5.78;0.85;;;;;;;9.59;52.68;99162.84;5049765;28;20041;-63
2021/10/09 09:55:35;;;;;;;0.40;0.38;;;;;;;9.60;52.93;99158.22;5036107;28;20042;-63
2021/10/09 09:58:02;;;;;;;0.45;0.45;;;;;;;9.58;52.84;99158.41;5034220;28;20165;-65
2021/10/09 10:00:33;;;;;;;0.57;0.57;;;;;;;9.63;52.77;99146.81;5025592;28;20045;-64
2021/10/09 10:03:00;;;;;;;0.40;0.40;;;;;;;9.57;52.48;99145.78;5050946;28;20056;-64
2021/10/09 10:05:28;;;;;;;0.40;0.40;;;;;;;9.53;52.79;99157.41;5038437;28;20044;-64
2021/10/09 10:07:55;;;;;;;0.98;0.77;;;;;;;9.47;52.72;99142.69;5053886;28;20049;-63
2021/10/09 10:10:22;;;;;;;0.52;0.52;;;;;;;9.50;52.83;99144.16;5054002;28;20392;-65
2021/10/09 10:12:54;;;;;;;0.70;0.70;;;;;;;9.56;52.34;99135.88;5053944;28;20045;-63
2021/10/09 10:15:27;;;;;;;0.55;0.55;;;;;;;9.54;52.48;99148.13;5053366;28;20048;-64
2021/10/09 10:17:52;;;;;;;0.70;0.70;;;;;;;9.43;52.94;99150.50;5036095;28;20127;-64
2021/10/09 10:20:21;;;;;;;0.80;0.73;;;;;;;9.42;52.65;99137.00;5053897;28;20191;-65
2021/10/09 10:22:49;;;;;;;1.13;0.63;;;;;;;9.43;52.61;99146.91;5053965;28;20040;-65
2021/10/09 10:25:25;;;;;;;0.50;0.50;;;;;;;9.41;52.59;99149.88;5053810;28;20037;-64
2021/10/09 10:28:05;;;;;;;0.43;0.43;;;;;;;9.37;52.63;99142.31;5053531;28;20175;-66
2021/10/09 10:30:49;;;;;;;0.47;0.47;;;;;;;9.34;52.68;99134.53;5052724;28;20044;-66
2021/10/09 10:33:18;;;;;;;1.10;1.10;;;;;;;9.35;52.59;99142.53;5053429;28;20403;-64
2021/10/09 10:35:46;;;;;;;1.10;1.00;;;;;;;9.37;52.41;99145.88;5053520;28;20037;-68
2021/10/09 10:38:23;;;;;;;1.30;1.20;;;;;;;9.40;52.68;99145.44;5052162;28;20077;-66
2021/10/09 10:40:58;;;;;;;0.73;0.73;;;;;;;9.37;52.53;99140.41;5050185;28;20056;-63
2021/10/09 10:43:35;;;;;;;4.05;1.25;;;;;;;9.31;52.51;99140.47;5042377;28;20420;-66
2021/10/09 10:46:19;;;;;;;1.67;0.98;;;;;;;9.22;52.85;99142.59;5051317;28;20500;-67
2021/10/09 10:59:31;;;;;;;2.58;0.95;;;;;;;8.68;53.40;99161.09;5031230;28;20424;-64
2021/10/09 11:02:10;;;;;;;0.60;0.60;;;;;;;8.61;53.36;99158.38;5001476;28;20038;-66
2021/10/09 11:04:39;;;;;;;0.43;0.43;;;;;;;8.53;53.35;99144.94;5032199;28;20466;-64
2021/10/09 11:07:05;;;;;;;0.57;0.57;;;;;;;8.47;53.57;99162.22;5032741;28;20049;-68
2021/10/09 11:09:31;;;;;;;1.08;0.85;;;;;;;8.40;53.63;99159.44;5032699;28;20049;-65
2021/10/09 11:11:58;;;;;;;1.65;0.90;;;;;;;8.40;53.37;99168.47;5032738;28;20041;-70
2021/10/09 11:14:27;;;;;;;0.55;0.30;;;;;;;8.40;53.49;99165.75;5032847;28;20041;-66
2021/10/09 11:17:04;;;;;;;0.50;0.40;;;;;;;8.35;53.24;99160.06;5024593;28;20408;-69
2021/10/09 11:19:47;;;;;;;0.55;0.55;;;;;;;8.35;53.16;99159.25;5052640;28;20048;-66
2021/10/09 11:22:15;;;;;;;1.38;1.05;;;;;;;8.39;53.19;99164.06;5052947;28;20044;-66
2021/10/09 11:24:46;;;;;;;0.57;0.57;;;;;;;8.39;53.18;99155.88;5052312;28;20099;-69
2021/10/09 11:27:13;;;;;;;5.35;1.15;;;;;;;8.42;53.01;99152.72;5052827;28;20124;-68
2021/10/09 11:29:40;;;;;;;0.63;0.63;;;;;;;8.41;52.98;99151.00;5034690;28;20504;-69
2021/10/09 11:32:10;;;;;;;0.60;0.60;;;;;;;8.36;53.01;99156.28;5032382;28;20045;-69
2021/10/09 11:34:52;;;;;;;0.75;0.70;;;;;;;8.30;53.16;99162.59;5039677;28;20045;-68
2021/10/09 11:37:19;;;;;;;0.30;0.30;;;;;;;8.19;53.37;99160.50;5045445;28;20543;-71
2021/10/09 11:39:53;;;;;;;0.60;0.60;;;;;;;8.09;53.57;99165.56;5051891;28;20036;-69
2021/10/09 11:42:26;;;;;;;0.55;0.47;;;;;;;8.00;53.52;99164.94;5052274;28;20047;-69
2021/10/09 11:45:23;;;;;;;0.47;0.47;;;;;;;7.89;53.77;99152.69;5043795;28;20045;-68
2021/10/09 11:53:47;;;;;;;1.02;1.00;;;;;;;7.75;53.93;99157.31;5038546;28;20522;-70
2021/10/09 11:56:14;;;;;;;0.45;0.45;;;;;;;7.76;53.86;99161.75;5034679;28;20064;-68
2021/10/09 11:58:45;;;;;;;1.20;1.13;;;;;;;7.76;53.80;99158.16;5030767;28;20045;-68
2021/10/09 12:01:24;;;;;;;0.77;0.77;;;;;;;7.74;53.76;99147.44;5040925;28;20042;-69
2021/10/09 12:03:49;;;;;;;0.38;0.38;;;;;;;7.61;53.87;99151.00;5031019;28;20041;-70
2021/10/09 12:06:15;;;;;;;2.15;1.13;;;;;;;7.55;54.20;99151.81;5033529;28;20476;-71
2021/10/09 12:08:53;;;;;;;3.22;1.52;;;;;;;7.58;54.23;99148.66;5032679;28;20083;-70
2021/10/09 12:11:19;;;;;;;1.15;0.85;;;;;;;7.57;54.04;99146.13;5036450;28;20045;-68
2021/10/09 12:13:50;;;;;;;0.50;0.50;;;;;;;7.52;54.14;99131.22;5050229;28;20048;-70
2021/10/09 12:16:27;;;;;;;0.47;0.47;;;;;;;7.44;54.58;99133.31;5037601;28;20052;-71
2021/10/09 12:18:58;;;;;;;1.63;1.10;;;;;;;7.41;54.61;99136.47;5013737;28;20115;-68
2021/10/09 12:21:26;;;;;;;0.77;0.77;;;;;;;7.38;54.69;99134.97;5036190;28;20037;-70
2021/10/09 12:23:53;;;;;;;0.68;0.63;;;;;;;7.35;54.67;99124.47;5030950;28;20045;-68
2021/10/09 12:26:20;;;;;;;0.50;0.50;;;;;;;7.32;54.89;99128.44;5012783;28;20500;-71
2021/10/09 12:29:05;;;;;;;1.08;0.52;;;;;;;7.31;54.71;99121.28;5032818;28;20036;-68
2021/10/09 12:31:34;;;;;;;0.77;0.77;;;;;;;7.31;54.92;99115.81;5031700;28;20057;-68
2021/10/09 12:34:00;;;;;;;0.88;0.85;;;;;;;7.33;54.74;99116.47;5033467;28;20447;-67
2021/10/09 12:39:24;;;;;;;1.00;0.90;;;;;;;7.44;54.83;99114.19;5033661;28;20099;-67
2021/10/09 12:41:52;;;;;;;0.68;0.68;;;;;;;7.45;54.67;99111.25;5032798;28;20058;-67
2021/10/09 12:44:57;;;;;;;0.93;0.75;;;;;;;7.53;54.56;99116.50;5037132;28;20033;-71
2021/10/09 12:47:23;;;;;;;1.63;0.85;;;;;;;7.56;54.52;99119.88;5041437;28;20065;-68
2021/10/09 12:49:48;;;;;;;0.50;0.50;;;;;;;7.57;54.66;99119.66;5030088;28;20492;-73
2021/10/09 12:52:14;;;;;;;0.85;0.85;;;;;;;7.56;54.76;99115.25;5030221;28;20060;-69
2021/10/09 12:54:40;;;;;;;0.65;0.65;;;;;;;7.59;54.83;99114.81;5047063;28;20041;-68
2021/10/09 12:57:07;;;;;;;1.05;0.85;;;;;;;7.58;54.81;99115.03;5039812;28;20586;-65
2021/10/09 12:59:34;;;;;;;0.47;0.47;;;;;;;7.57;55.00;99106.00;5044896;28;20144;-69
2021/10/09 13:02:03;;;;;;;0.40;0.40;;;;;;;7.54;54.96;99104.53;5036908;28;20049;-70
2021/10/09 13:04:29;;;;;;;0.52;0.43;;;;;;;7.50;55.05;99107.88;5052226;28;20043;-71
2021/10/09 13:06:55;;;;;;;4.18;1.50;;;;;;;7.48;55.02;99108.09;5053601;28;20041;-67
2021/10/09 13:09:20;;;;;;;1.45;0.57;;;;;;;7.47;55.29;99106.41;5053368;28;20036;-64
2021/10/09 13:11:50;;;;;;;0.45;0.45;;;;;;;7.45;55.25;99103.03;5044562;28;20044;-66
2021/10/09 13:14:15;;;;;;;1.17;1.13;;;;;;;7.46;55.13;99101.16;5039660;28;20103;-67
2021/10/09 13:16:41;;;;;;;0.43;0.43;;;;;;;7.47;55.27;99094.63;5035149;28;20049;-66
2021/10/09 13:19:07;;;;;;;0.70;0.70;;;;;;;7.48;55.15;99093.56;5038443;28;20056;-66
2021/10/09 13:21:33;;;;;;;1.67;0.73;;;;;;;7.48;54.97;99096.31;5018394;28;20037;-65
2021/10/09 13:23:59;;;;;;;4.07;1.23;;;;;;;7.48;55.20;99099.03;5036985;28;20099;-65
2021/10/09 13:26:25;;;;;;;0.77;0.77;;;;;;;7.44;55.28;99103.25;5041745;28;20038;-67
2021/10/09 13:28:50;;;;;;;3.20;0.75;;;;;;;7.42;55.46;99099.88;5025979;28;20443;-65
2021/10/09 13:31:16;;;;;;;1.92;1.42;;;;;;;7.41;55.59;99109.13;5043993;28;20099;-67
2021/10/09 13:33:42;;;;;;;2.90;0.90;;;;;;;7.43;55.47;99107.03;5046512;28;20041;-69
2021/10/09 13:36:08;;;;;;;3.25;1.70;;;;;;;7.42;55.66;99111.66;5042136;28;20415;-68
2021/10/09 13:38:34;;;;;;;0.82;0.82;;;;;;;7.41;55.57;99101.78;5039941;28;20060;-67
2021/10/09 13:41:01;;;;;;;0.40;0.40;;;;;;;7.41;55.81;99098.22;5025142;28;20565;-67
2021/10/09 13:43:26;;;;;;;1.52;1.27;;;;;;;7.36;55.93;99096.94;5041069;28;20091;-70
2021/10/09 13:45:52;;;;;;;1.20;0.50;;;;;;;7.34;56.06;99093.56;5043084;28;20045;-69
2021/10/09 13:48:18;;;;;;;0.65;0.65;;;;;;;7.29;56.10;99096.06;5043122;28;20044;-68
2021/10/09 13:50:50;;;;;;;1.95;0.90;;;;;;;7.24;56.15;99092.28;5045406;28;20471;-69
2021/10/09 13:53:16;;;;;;;0.95;0.90;;;;;;;7.21;56.30;99098.97;5038990;28;20053;-70
2021/10/09 13:55:42;;;;;;;0.57;0.57;;;;;;;7.18;56.35;99091.22;5041929;28;20133;-68
2021/10/09 13:58:13;;;;;;;0.60;0.60;;;;;;;7.17;56.36;99092.28;5040159;28;20099;-69
2021/10/09 14:00:40;;;;;;;0.82;0.70;;;;;;;7.12;56.38;99092.88;5022809;28;20053;-70
2021/10/09 14:03:06;;;;;;;0.60;0.60;;;;;;;7.08;56.55;99093.47;5040170;28;20040;-70
2021/10/09 14:05:33;;;;;;;0.55;0.55;;;;;;;7.02;56.72;99092.41;5041723;28;20413;-69
2021/10/09 14:07:59;;;;;;;0.45;0.45;;;;;;;6.97;56.65;99090.31;5043685;28;20037;-70
2021/10/09 14:10:25;;;;;;;0.32;0.32;;;;;;;6.98;56.89;99102.91;5045503;28;20458;-68
2021/10/09 14:12:51;;;;;;;0.47;0.47;;;;;;;6.99;56.73;99096.41;5042060;28;20120;-67
2021/10/09 14:15:18;;;;;;;0.77;0.65;;;;;;;7.00;56.67;99081.69;5041817;28;20060;-70
2021/10/09 14:17:43;;;;;;;0.40;0.40;;;;;;;7.01;56.54;99088.84;5036745;28;20048;-68
2021/10/09 14:20:10;;;;;;;2.47;0.80;;;;;;;7.01;56.52;99091.59;5040927;28;20132;-69
2021/10/09 14:22:37;;;;;;;1.10;1.05;;;;;;;7.00;56.53;99084.44;5040474;28;20065;-69
2021/10/09 14:25:08;;;;;;;2.92;1.40;;;;;;;6.99;56.53;99088.22;5042678;28;20079;-69
2021/10/09 14:27:34;;;;;;;0.68;0.68;;;;;;;6.99;56.67;99084.63;5047031;28;20043;-67
2021/10/09 14:30:00;;;;;;;4.55;1.17;;;;;;;7.00;56.57;99087.16;5043275;28;20462;-69
2021/10/09 14:32:28;;;;;;;3.28;1.17;;;;;;;7.03;56.60;99085.09;5037486;28;20041;-68
2021/10/09 14:34:54;;;;;;;0.32;0.30;;;;;;;7.03;56.66;99096.00;5041290;28;20048;-67
2021/10/09 14:37:20;;;;;;;0.63;0.63;;;;;;;6.99;56.68;99098.28;5042415;28;20049;-66
2021/10/09 14:39:46;;;;;;;1.38;1.00;;;;;;;6.97;56.66;99103.94;5033191;28;20136;-65
2021/10/09 14:42:14;;;;;;;0.73;0.68;;;;;;;6.95;56.57;99084.22;5012570;28;20049;-65
2021/10/09 14:44:39;;;;;;;0.80;0.80;;;;;;;6.97;56.66;99103.13;5035589;28;20049;-65
2021/10/09 14:49:53;;;;;;;0.65;0.65;;;;;;;6.97;56.61;99092.19;5039447;28;20041;-69
2021/10/09 14:52:45;;;;;;;4.03;1.00;;;;;;;6.99;56.45;99099.16;5040429;28;20122;-68